Airport View

Enter AWOS ICAO identifier for current METAR.

ex. KFNL

KBVU 022300Z AUTO 00000KT 10SM CLR 37/00 A2994 RMK AO2

2 Jun 2020 23:00

Frequency: 118.475

Phone: 702-293-1532

Other Area AWOS: KHND - KLAS - KLSV - KVGT

TAF KHND 021730Z 0218/0318 18007KT P6SM FEW140 BKN250 FM022000 15012G20KT P6SM SCT140 BKN250 FM030300 18008KT P6SM SCT140 BKN250 AMD NOT SKED